Time;durP1;ratioP1;P1;durP2;ratioP2;P2;SDS_P1;SDS_P2;PMS_P1;PMS_P2;Temp;Humidity;BMP_temperature;BMP_pressure;BME280_temperature;BME280_humidity;BME280_pressure;Samples;Min_cycle;Max_cycle;Signal;HPM_P1;HPM_P2
2023/08/25 00:02:09;;;;;;;8.37;2.13;;;21.20;28.00;;;;;;5071125;28;20473;-70
2023/08/25 00:04:35;;;;;;;4.07;2.60;;;21.20;28.40;;;;;;5071384;28;20412;-70
2023/08/25 00:07:01;;;;;;;3.07;2.40;;;21.30;27.80;;;;;;5071267;28;20209;-69
2023/08/25 00:09:27;;;;;;;5.07;1.90;;;21.30;27.50;;;;;;5071308;28;20456;-70
2023/08/25 00:11:52;;;;;;;2.63;1.97;;;21.30;26.70;;;;;;5071153;28;20640;-70
2023/08/25 00:14:18;;;;;;;3.67;2.00;;;21.30;26.60;;;;;;5071333;28;20261;-70
2023/08/25 00:16:43;;;;;;;3.70;1.70;;;21.30;26.70;;;;;;5071295;28;20324;-70
2023/08/25 00:19:09;;;;;;;3.63;2.00;;;21.30;27.00;;;;;;5071698;28;20182;-70
2023/08/25 00:21:34;;;;;;;3.90;2.07;;;21.30;26.10;;;;;;5072000;28;20178;-70
2023/08/25 00:24:00;;;;;;;3.57;2.03;;;21.30;25.40;;;;;;5074930;28;20209;-70
2023/08/25 00:26:25;;;;;;;2.90;1.67;;;21.30;25.90;;;;;;5074874;28;20216;-69
2023/08/25 00:28:51;;;;;;;4.60;2.47;;;21.20;25.80;;;;;;5074748;28;20178;-69
2023/08/25 00:31:17;;;;;;;5.60;2.07;;;21.20;26.60;;;;;;5074857;28;20178;-69
2023/08/25 00:33:49;;;;;;;2.33;1.37;;;21.20;26.00;;;;;;5074512;28;20174;-70
2023/08/25 00:36:15;;;;;;;3.33;1.90;;;21.10;26.00;;;;;;5074564;28;20196;-69
2023/08/25 00:38:40;;;;;;;3.50;1.93;;;21.10;27.10;;;;;;5074677;28;20762;-69
2023/08/25 00:41:06;;;;;;;3.27;2.00;;;21.10;26.80;;;;;;5074675;28;20209;-70
2023/08/25 00:43:33;;;;;;;4.13;2.20;;;21.00;27.00;;;;;;5074265;28;20195;-70
2023/08/25 00:45:59;;;;;;;11.13;2.30;;;21.00;26.40;;;;;;5074557;28;20682;-70
2023/08/25 00:48:26;;;;;;;3.43;2.60;;;21.00;25.80;;;;;;5074552;28;20408;-70
2023/08/25 00:50:53;;;;;;;3.23;1.87;;;21.00;25.90;;;;;;5074252;28;20858;-70
2023/08/25 00:53:19;;;;;;;3.40;2.13;;;20.90;26.10;;;;;;5074095;28;20480;-70
2023/08/25 00:55:45;;;;;;;5.70;2.43;;;20.90;27.50;;;;;;5074483;28;20467;-70
2023/08/25 00:58:14;;;;;;;7.40;1.87;;;20.90;28.00;;;;;;5074457;28;20497;-70
2023/08/25 01:00:40;;;;;;;3.50;1.70;;;20.80;27.90;;;;;;5074271;28;20209;-70
2023/08/25 01:03:06;;;;;;;3.40;2.27;;;20.80;28.40;;;;;;5073956;28;20526;-70
2023/08/25 01:05:31;;;;;;;3.50;2.50;;;20.70;29.80;;;;;;5074003;28;20507;-70
2023/08/25 01:07:57;;;;;;;3.30;2.03;;;20.70;29.10;;;;;;5074237;28;20189;-70
2023/08/25 01:10:33;;;;;;;4.27;2.53;;;20.80;28.90;;;;;;5074169;28;20209;-70
2023/08/25 01:13:16;;;;;;;3.90;1.77;;;20.80;30.00;;;;;;5073686;28;20166;-70
2023/08/25 01:15:46;;;;;;;4.17;2.30;;;20.80;30.20;;;;;;5073785;28;20442;-70
2023/08/25 01:18:17;;;;;;;3.77;2.67;;;20.80;30.50;;;;;;5074244;28;20868;-70
2023/08/25 01:20:46;;;;;;;3.70;1.87;;;20.80;30.00;;;;;;5073953;28;20412;-70
2023/08/25 01:23:19;;;;;;;6.20;2.37;;;20.80;30.00;;;;;;5074501;28;20423;-69
2023/08/25 01:25:48;;;;;;;3.07;2.07;;;20.80;30.00;;;;;;5073763;28;20427;-70
2023/08/25 01:28:13;;;;;;;3.90;2.40;;;20.70;29.90;;;;;;5073691;28;20424;-69
2023/08/25 01:30:39;;;;;;;7.10;2.57;;;20.70;29.50;;;;;;5073543;28;20621;-69
2023/08/25 01:33:05;;;;;;;3.03;2.50;;;20.70;29.10;;;;;;5072516;28;20170;-70
2023/08/25 01:35:57;;;;;;;2.90;2.13;;;20.70;28.90;;;;;;5073556;28;20193;-70
2023/08/25 01:38:31;;;;;;;3.70;2.70;;;20.70;29.60;;;;;;5073546;28;20547;-69
2023/08/25 01:41:26;;;;;;;5.93;3.20;;;20.70;29.90;;;;;;5073393;28;20809;-69
2023/08/25 01:43:53;;;;;;;4.90;1.70;;;20.70;29.90;;;;;;5073526;28;20488;-69
2023/08/25 01:46:20;;;;;;;3.50;2.53;;;20.70;29.90;;;;;;5074338;28;20444;-70
2023/08/25 01:48:50;;;;;;;4.83;2.00;;;20.80;28.50;;;;;;5075275;28;20904;-70
2023/08/25 01:51:16;;;;;;;7.93;2.83;;;20.80;25.80;;;;;;5075872;28;20416;-71
2023/08/25 01:53:51;;;;;;;4.40;2.67;;;20.90;25.80;;;;;;5075219;28;20892;-70
2023/08/25 01:56:16;;;;;;;3.60;2.43;;;20.90;26.20;;;;;;5075975;28;20844;-71
2023/08/25 01:58:42;;;;;;;4.40;2.40;;;21.00;25.50;;;;;;5075538;28;20412;-71
2023/08/25 02:01:07;;;;;;;4.10;1.90;;;21.00;23.50;;;;;;5075160;28;20540;-70
2023/08/25 02:03:33;;;;;;;4.87;3.10;;;21.10;22.20;;;;;;5056171;28;20184;-70
2023/08/25 02:05:58;;;;;;;3.00;2.13;;;21.20;21.80;;;;;;5074126;28;20289;-70
2023/08/25 02:08:24;;;;;;;3.00;2.20;;;21.20;21.80;;;;;;5074467;28;20174;-70
2023/08/25 02:10:49;;;;;;;7.47;2.97;;;21.30;21.80;;;;;;5074327;28;20197;-70
2023/08/25 02:13:15;;;;;;;3.60;2.40;;;21.30;21.30;;;;;;5075130;28;20174;-70
2023/08/25 02:15:47;;;;;;;3.70;2.20;;;21.30;21.10;;;;;;5074383;28;20269;-70
2023/08/25 02:18:13;;;;;;;3.10;2.10;;;21.40;20.50;;;;;;5074916;28;20178;-70
2023/08/25 02:20:39;;;;;;;3.90;2.20;;;21.40;20.70;;;;;;5075407;28;20416;-69
2023/08/25 02:23:05;;;;;;;3.33;2.03;;;21.40;20.20;;;;;;5074699;28;20235;-69
2023/08/25 02:25:31;;;;;;;3.00;2.30;;;21.50;20.40;;;;;;5074772;28;20515;-69
2023/08/25 02:27:57;;;;;;;3.80;2.40;;;21.50;21.10;;;;;;5074466;28;20440;-69
2023/08/25 02:30:23;;;;;;;6.83;3.50;;;21.50;20.80;;;;;;5074147;28;20476;-70
2023/08/25 02:32:49;;;;;;;4.93;2.73;;;21.50;20.40;;;;;;5072355;28;20170;-70
2023/08/25 02:35:15;;;;;;;4.83;2.63;;;21.50;20.00;;;;;;5072268;28;20409;-70
2023/08/25 02:38:00;;;;;;;3.63;2.83;;;21.60;20.30;;;;;;5072301;28;20412;-70
2023/08/25 02:40:27;;;;;;;3.23;2.50;;;21.60;20.30;;;;;;5072515;28;20974;-76
2023/08/25 02:42:54;;;;;;;4.50;3.03;;;21.60;19.90;;;;;;5072190;28;20419;-73
2023/08/25 02:45:21;;;;;;;3.43;2.37;;;21.60;20.10;;;;;;5072163;28;20499;-71
2023/08/25 02:47:47;;;;;;;3.10;1.87;;;21.60;19.90;;;;;;5072557;28;20440;-71
2023/08/25 02:50:13;;;;;;;3.40;2.13;;;21.60;20.90;;;;;;5072211;28;20470;-70
2023/08/25 02:52:38;;;;;;;3.90;2.73;;;21.60;20.20;;;;;;5072397;28;20174;-71
2023/08/25 02:55:05;;;;;;;3.07;2.27;;;21.70;19.30;;;;;;5072125;28;20477;-71
2023/08/25 02:57:30;;;;;;;5.33;2.87;;;21.80;19.80;;;;;;5072339;28;20193;-71
2023/08/25 02:59:56;;;;;;;4.40;3.90;;;21.80;19.60;;;;;;5072058;28;20954;-71
2023/08/25 03:02:22;;;;;;;3.70;1.97;;;21.80;19.80;;;;;;5071853;28;20178;-71
2023/08/25 03:04:47;;;;;;;3.80;2.47;;;21.70;19.50;;;;;;5072117;28;20165;-71
2023/08/25 03:07:13;;;;;;;3.67;2.10;;;21.60;19.90;;;;;;5071978;28;20236;-71
2023/08/25 03:09:38;;;;;;;3.27;2.40;;;21.60;20.10;;;;;;5072832;28;20225;-71
2023/08/25 03:12:04;;;;;;;3.83;2.30;;;21.60;20.40;;;;;;5072608;28;20177;-71
2023/08/25 03:14:30;;;;;;;3.50;2.60;;;21.60;21.00;;;;;;5073449;28;20199;-71
2023/08/25 03:16:55;;;;;;;5.00;2.50;;;21.60;21.20;;;;;;5072944;28;20436;-71
2023/08/25 03:19:21;;;;;;;5.27;2.70;;;21.50;21.10;;;;;;5073579;28;20178;-71
2023/08/25 03:21:46;;;;;;;4.93;2.30;;;21.50;21.50;;;;;;5072893;28;20170;-71
2023/08/25 03:24:12;;;;;;;5.77;2.80;;;21.50;21.70;;;;;;5073316;28;20204;-71
2023/08/25 03:26:38;;;;;;;3.10;2.40;;;21.50;21.10;;;;;;5073100;28;20255;-70
2023/08/25 03:29:03;;;;;;;7.23;2.60;;;21.50;21.00;;;;;;5073225;28;20174;-70
2023/08/25 03:31:29;;;;;;;4.23;2.57;;;21.50;20.30;;;;;;5073484;28;20518;-71
2023/08/25 03:33:54;;;;;;;4.63;3.00;;;21.50;19.80;;;;;;5072613;28;20182;-71
2023/08/25 03:36:20;;;;;;;4.10;2.77;;;21.50;19.00;;;;;;5072900;28;20273;-71
2023/08/25 03:38:45;;;;;;;4.50;2.23;;;21.60;19.30;;;;;;5072419;28;20618;-71
2023/08/25 03:41:11;;;;;;;4.77;2.13;;;21.60;19.50;;;;;;5073071;28;20253;-70
2023/08/25 03:43:36;;;;;;;5.30;2.57;;;21.50;19.40;;;;;;5071661;28;20193;-70
2023/08/25 03:46:03;;;;;;;3.57;2.63;;;21.50;20.10;;;;;;5072743;28;20292;-71
2023/08/25 03:48:29;;;;;;;3.20;2.60;;;21.50;20.10;;;;;;5072821;28;20725;-71
2023/08/25 03:50:54;;;;;;;6.00;2.10;;;21.50;19.30;;;;;;5073350;28;20502;-70
2023/08/25 03:53:20;;;;;;;5.17;2.40;;;21.60;19.20;;;;;;5072948;28;20249;-71
2023/08/25 03:55:45;;;;;;;3.17;1.80;;;21.60;19.50;;;;;;5073311;28;20276;-71
2023/08/25 03:58:12;;;;;;;2.37;1.87;;;21.60;18.00;;;;;;5077078;28;20591;-70
2023/08/25 04:00:38;;;;;;;3.80;2.03;;;21.60;18.30;;;;;;5077251;28;20178;-71
2023/08/25 04:03:06;;;;;;;3.30;2.20;;;21.70;17.20;;;;;;5076704;28;20420;-71
2023/08/25 04:05:34;;;;;;;3.43;2.60;;;21.70;17.30;;;;;;5076584;28;20196;-70
2023/08/25 04:08:00;;;;;;;4.13;1.90;;;21.70;17.00;;;;;;5077137;28;20412;-71
2023/08/25 04:10:26;;;;;;;4.20;2.27;;;21.70;17.60;;;;;;5077259;28;20509;-71
2023/08/25 04:12:51;;;;;;;3.63;2.40;;;21.70;17.20;;;;;;5080030;28;20193;-71
2023/08/25 04:15:20;;;;;;;5.40;2.30;;;21.70;17.70;;;;;;5097309;28;20399;-70
2023/08/25 04:17:46;;;;;;;10.20;3.40;;;21.70;18.00;;;;;;5097303;28;20173;-70
2023/08/25 04:20:11;;;;;;;2.60;2.10;;;21.60;19.10;;;;;;5097296;28;20962;-70
2023/08/25 04:22:37;;;;;;;11.53;2.50;;;21.50;19.20;;;;;;5096151;28;20173;-70
2023/08/25 04:25:04;;;;;;;5.17;2.80;;;21.50;19.30;;;;;;5097569;28;20177;-70
2023/08/25 04:27:30;;;;;;;3.13;2.30;;;21.50;19.50;;;;;;5097498;28;20197;-70
2023/08/25 04:29:55;;;;;;;3.57;2.40;;;21.50;19.90;;;;;;5096552;28;20473;-70
2023/08/25 04:32:22;;;;;;;3.17;2.40;;;21.50;19.70;;;;;;5096204;28;20254;-70
2023/08/25 04:34:48;;;;;;;3.90;2.53;;;21.50;20.50;;;;;;5078487;28;20173;-70
2023/08/25 04:37:13;;;;;;;4.00;2.73;;;21.50;19.60;;;;;;5097502;28;20430;-71
2023/08/25 04:39:40;;;;;;;4.00;2.70;;;21.40;20.50;;;;;;5097748;28;20260;-70
2023/08/25 04:42:06;;;;;;;4.20;2.47;;;21.40;20.50;;;;;;5095110;28;20177;-70
2023/08/25 04:44:31;;;;;;;3.77;2.30;;;21.40;21.20;;;;;;5095448;28;20442;-70
2023/08/25 04:46:57;;;;;;;3.80;2.17;;;21.40;21.40;;;;;;5095374;28;20482;-71
2023/08/25 04:49:22;;;;;;;6.23;2.33;;;21.30;21.80;;;;;;5095884;28;20204;-73
2023/08/25 04:51:48;;;;;;;3.37;2.57;;;21.30;21.80;;;;;;5095959;28;20181;-74
2023/08/25 04:54:14;;;;;;;3.60;1.97;;;21.30;21.80;;;;;;5095515;28;20234;-72
2023/08/25 04:56:39;;;;;;;2.90;1.90;;;21.30;21.90;;;;;;5094836;28;20434;-72
2023/08/25 04:59:05;;;;;;;7.23;3.77;;;21.30;22.40;;;;;;5094829;28;20534;-72
2023/08/25 05:01:31;;;;;;;4.90;2.50;;;21.30;21.80;;;;;;5094949;28;20635;-71
2023/08/25 05:03:56;;;;;;;4.80;2.50;;;21.30;22.10;;;;;;5094419;28;20166;-72
2023/08/25 05:06:22;;;;;;;6.00;2.80;;;21.30;21.80;;;;;;5094867;28;20201;-72
2023/08/25 05:08:47;;;;;;;6.50;2.83;;;21.30;21.80;;;;;;5093656;28;20286;-72
2023/08/25 05:11:14;;;;;;;3.70;2.67;;;21.30;21.80;;;;;;5095004;28;20211;-72
2023/08/25 05:13:39;;;;;;;3.37;2.63;;;21.40;21.90;;;;;;5095245;28;20660;-72
2023/08/25 05:16:05;;;;;;;4.50;2.17;;;21.40;21.90;;;;;;5094692;28;20506;-71
2023/08/25 05:18:31;;;;;;;3.17;1.93;;;21.50;22.00;;;;;;5094591;28;20208;-75
2023/08/25 05:21:00;;;;;;;4.03;3.27;;;21.60;21.40;;;;;;5094442;28;20234;-70
2023/08/25 05:23:27;;;;;;;6.70;2.90;;;21.70;21.90;;;;;;5093919;28;20403;-71
2023/08/25 05:25:52;;;;;;;4.23;2.20;;;21.80;19.90;;;;;;5094204;28;20951;-71
2023/08/25 05:28:18;;;;;;;4.27;3.30;;;22.00;19.40;;;;;;5094007;28;20411;-71
2023/08/25 05:30:46;;;;;;;5.17;2.70;;;22.20;19.10;;;;;;5094009;28;20205;-71
2023/08/25 05:33:12;;;;;;;5.30;2.77;;;22.50;16.90;;;;;;5094110;28;20173;-72
2023/08/25 05:35:37;;;;;;;4.73;2.70;;;22.90;15.40;;;;;;5095314;28;20431;-72
2023/08/25 05:38:03;;;;;;;4.67;2.37;;;23.60;13.20;;;;;;5094401;28;20181;-72
2023/08/25 05:40:29;;;;;;;6.20;4.10;;;24.90;9.50;;;;;;5095681;28;20173;-72
2023/08/25 05:42:55;;;;;;;4.27;3.43;;;26.20;5.20;;;;;;5075923;28;20419;-71
2023/08/25 05:45:20;;;;;;;5.40;4.00;;;27.40;1.00;;;;;;5094033;28;20291;-72
2023/08/25 05:47:46;;;;;;;5.43;4.00;;;28.60;1.00;;;;;;5093683;28;20654;-73
2023/08/25 05:50:11;;;;;;;5.67;3.70;;;29.60;1.00;;;;;;5093655;28;20272;-71
2023/08/25 05:52:37;;;;;;;4.33;3.93;;;30.40;1.00;;;;;;5093595;28;20172;-71
2023/08/25 05:55:03;;;;;;;4.20;3.90;;;31.10;1.00;;;;;;5093385;28;20212;-71
2023/08/25 05:57:28;;;;;;;4.40;4.10;;;31.70;1.00;;;;;;5093615;28;20284;-72
2023/08/25 05:59:54;;;;;;;4.63;4.23;;;32.10;1.00;;;;;;5093817;28;20609;-72
2023/08/25 06:02:20;;;;;;;5.13;4.67;;;31.90;1.00;;;;;;5094939;28;20184;-73
2023/08/25 06:04:45;;;;;;;5.10;4.70;;;31.10;1.00;;;;;;5061028;28;20436;-72
2023/08/25 06:07:11;;;;;;;5.10;4.70;;;31.60;1.00;;;;;;5064711;28;20633;-74
2023/08/25 06:09:37;;;;;;;4.73;4.33;;;31.80;1.00;;;;;;5065750;28;20194;-72
2023/08/25 06:12:03;;;;;;;5.67;4.53;;;31.20;1.00;;;;;;5064435;28;20182;-71
2023/08/25 06:14:30;;;;;;;7.63;3.70;;;30.70;1.00;;;;;;5054183;28;20186;-71
2023/08/25 06:17:01;;;;;;;7.47;5.20;;;30.00;1.00;;;;;;5042214;28;20238;-72
2023/08/25 06:19:27;;;;;;;7.40;4.83;;;29.50;1.00;;;;;;5051394;28;20438;-71
2023/08/25 06:21:53;;;;;;;10.90;6.27;;;28.30;1.00;;;;;;5069995;28;20928;-71
2023/08/25 06:24:18;;;;;;;6.63;3.70;;;27.50;1.00;;;;;;5072732;28;20453;-71
2023/08/25 06:26:44;;;;;;;7.07;3.60;;;26.50;1.00;;;;;;5073078;28;20193;-72
2023/08/25 06:29:11;;;;;;;3.33;2.93;;;25.80;3.10;;;;;;5072204;28;20178;-72
2023/08/25 06:31:37;;;;;;;3.73;2.60;;;24.80;7.20;;;;;;5072142;28;20192;-72
2023/08/25 06:34:02;;;;;;;3.63;3.10;;;23.80;12.50;;;;;;5072869;28;20400;-72
2023/08/25 06:36:30;;;;;;;5.03;4.27;;;23.20;15.20;;;;;;5072705;28;20212;-73
2023/08/25 06:38:56;;;;;;;5.27;2.97;;;22.70;18.40;;;;;;5073718;28;20174;-72
2023/08/25 06:41:22;;;;;;;5.73;3.80;;;22.50;20.40;;;;;;5073198;28;20470;-73
2023/08/25 06:43:47;;;;;;;12.43;4.30;;;22.20;22.50;;;;;;5073198;28;20776;-72
2023/08/25 06:46:13;;;;;;;8.80;4.37;;;22.00;24.30;;;;;;5072508;28;20798;-72
2023/08/25 06:48:38;;;;;;;3.67;3.07;;;22.00;25.20;;;;;;5073111;28;20174;-70
2023/08/25 06:51:04;;;;;;;4.77;3.77;;;22.20;23.00;;;;;;5072880;28;20213;-72
2023/08/25 06:53:29;;;;;;;8.73;4.13;;;22.30;22.50;;;;;;5072107;28;20224;-70
2023/08/25 06:55:55;;;;;;;8.10;3.43;;;22.60;21.10;;;;;;5071972;28;20201;-71
2023/08/25 06:58:20;;;;;;;6.70;3.70;;;22.80;20.70;;;;;;5063401;28;20178;-70
2023/08/25 07:00:47;;;;;;;4.37;3.30;;;23.10;18.00;;;;;;5068534;28;20192;-71
2023/08/25 07:03:13;;;;;;;3.73;3.20;;;23.50;16.80;;;;;;5071675;28;20174;-70
2023/08/25 07:05:39;;;;;;;4.73;3.30;;;23.90;14.80;;;;;;5071720;28;20435;-69
2023/08/25 07:08:05;;;;;;;5.57;3.43;;;24.20;15.00;;;;;;5072011;28;20411;-71
2023/08/25 07:10:36;;;;;;;25.60;9.73;;;25.20;12.00;;;;;;5071911;28;20514;-70
2023/08/25 07:13:01;;;;;;;5.80;3.30;;;26.30;8.10;;;;;;5072451;28;20960;-70
2023/08/25 07:15:27;;;;;;;7.53;2.57;;;26.40;6.00;;;;;;5072515;28;20460;-71
2023/08/25 07:17:52;;;;;;;5.33;3.57;;;26.10;4.50;;;;;;5073029;28;20247;-69
2023/08/25 07:20:21;;;;;;;6.73;3.93;;;25.70;6.20;;;;;;5073413;28;20170;-71
2023/08/25 07:22:48;;;;;;;5.03;3.60;;;25.20;6.60;;;;;;5072913;28;20174;-72
2023/08/25 07:25:13;;;;;;;4.77;3.50;;;25.10;7.70;;;;;;5072647;28;20463;-72
2023/08/25 07:27:39;;;;;;;3.20;2.67;;;24.70;8.70;;;;;;5073724;28;20470;-72
2023/08/25 07:30:06;;;;;;;3.70;2.60;;;24.40;10.30;;;;;;5070239;28;20202;-72
2023/08/25 07:32:32;;;;;;;10.90;4.00;;;23.90;11.10;;;;;;5074219;28;20174;-72
2023/08/25 07:34:57;;;;;;;4.30;2.90;;;23.50;12.90;;;;;;5076656;28;20755;-71
2023/08/25 07:37:23;;;;;;;4.83;3.30;;;23.40;13.60;;;;;;5078207;28;20439;-72
2023/08/25 07:39:51;;;;;;;4.03;2.23;;;23.10;14.20;;;;;;5077063;28;20658;-74
2023/08/25 07:42:16;;;;;;;5.03;2.80;;;23.00;15.80;;;;;;5077339;28;20589;-72
2023/08/25 07:44:42;;;;;;;3.90;3.40;;;22.90;15.70;;;;;;5076385;28;20416;-72
2023/08/25 07:47:08;;;;;;;4.27;3.27;;;22.80;18.50;;;;;;5076377;28;20701;-72
2023/08/25 07:49:33;;;;;;;3.77;3.40;;;22.60;20.40;;;;;;5085755;22;20329;-70
2023/08/25 07:51:59;;;;;;;6.33;3.33;;;22.60;21.10;;;;;;5037764;28;20632;-72
2023/08/25 07:54:26;;;;;;;6.80;3.07;;;22.70;21.50;;;;;;5049290;28;20472;-71
2023/08/25 07:56:51;;;;;;;4.70;3.27;;;22.50;21.20;;;;;;5029885;28;20645;-72
2023/08/25 07:59:17;;;;;;;18.83;6.00;;;22.40;22.60;;;;;;5051132;28;20468;-71
2023/08/25 08:01:42;;;;;;;22.13;9.43;;;22.30;22.90;;;;;;5051163;28;20258;-71
2023/08/25 08:04:08;;;;;;;44.97;12.53;;;22.20;23.60;;;;;;5050748;28;20214;-71
2023/08/25 08:06:34;;;;;;;8.40;3.57;;;22.00;24.60;;;;;;5051177;28;20189;-73
2023/08/25 08:09:00;;;;;;;5.00;2.70;;;21.80;23.70;;;;;;5050443;28;20561;-71
2023/08/25 08:11:25;;;;;;;4.90;2.90;;;21.60;26.00;;;;;;5050573;28;20468;-72
2023/08/25 08:13:51;;;;;;;6.53;2.40;;;21.40;27.10;;;;;;5051267;28;20264;-72
2023/08/25 08:16:16;;;;;;;4.30;2.90;;;21.40;28.00;;;;;;5050975;28;20193;-72
2023/08/25 08:18:42;;;;;;;6.87;3.03;;;21.30;27.90;;;;;;5050254;28;20199;-73
2023/08/25 08:21:08;;;;;;;4.83;3.37;;;21.30;30.30;;;;;;5051551;28;20325;-73
2023/08/25 08:23:33;;;;;;;6.43;3.50;;;21.30;28.20;;;;;;5050511;28;20515;-73
2023/08/25 08:25:59;;;;;;;3.97;3.23;;;21.20;27.70;;;;;;5050537;28;20217;-73
2023/08/25 08:28:25;;;;;;;5.10;3.20;;;21.10;31.20;;;;;;5052704;28;20571;-73
2023/08/25 08:30:50;;;;;;;4.93;4.20;;;20.90;32.30;;;;;;5050076;28;20241;-73
2023/08/25 08:33:16;;;;;;;6.17;3.30;;;20.80;35.30;;;;;;5049845;28;20643;-72
2023/08/25 08:35:42;;;;;;;3.67;2.47;;;20.60;36.30;;;;;;5051229;28;20186;-72
2023/08/25 08:38:08;;;;;;;5.63;3.10;;;20.60;34.60;;;;;;5050039;28;20456;-72
2023/08/25 08:40:35;;;;;;;5.20;3.37;;;20.80;36.10;;;;;;5050103;28;20202;-76
2023/08/25 08:43:03;;;;;;;6.77;3.43;;;20.80;36.30;;;;;;5050785;28;20187;-72
2023/08/25 08:45:34;;;;;;;7.43;4.13;;;21.10;36.40;;;;;;5050113;28;20771;-73
2023/08/25 08:48:04;;;;;;;5.00;3.43;;;21.20;35.70;;;;;;5050184;28;20773;-73
2023/08/25 08:50:31;;;;;;;6.23;4.23;;;21.30;34.80;;;;;;5050162;28;20557;-73
2023/08/25 08:52:57;;;;;;;6.70;3.13;;;21.40;35.80;;;;;;5050347;28;20417;-74
2023/08/25 08:55:23;;;;;;;5.77;3.60;;;21.50;35.90;;;;;;5050035;28;20427;-73
2023/08/25 08:57:49;;;;;;;7.07;4.10;;;21.60;36.00;;;;;;5048963;28;20880;-73
2023/08/25 09:00:18;;;;;;;13.73;4.30;;;21.70;36.10;;;;;;5054319;28;20536;-73
2023/08/25 09:02:48;;;;;;;6.67;3.13;;;22.10;35.40;;;;;;5028706;28;20660;-72
2023/08/25 09:05:15;;;;;;;8.53;4.37;;;22.40;31.90;;;;;;5040002;28;20436;-72
2023/08/25 09:07:43;;;;;;;4.73;3.60;;;22.70;29.30;;;;;;5051720;28;20425;-73
2023/08/25 09:10:10;;;;;;;6.60;4.30;;;23.00;26.50;;;;;;5065709;28;20480;-71
2023/08/25 09:12:35;;;;;;;5.13;2.80;;;23.20;26.30;;;;;;5047318;28;20421;-73
2023/08/25 09:15:01;;;;;;;4.97;4.47;;;23.50;24.70;;;;;;5049376;28;20411;-70
2023/08/25 09:17:27;;;;;;;3.93;3.10;;;23.60;20.70;;;;;;5050342;28;20239;-69
2023/08/25 09:20:04;;;;;;;7.30;3.67;;;23.70;20.00;;;;;;5031223;28;20271;-70
2023/08/25 09:22:30;;;;;;;15.27;4.00;;;23.90;18.80;;;;;;5031334;28;20581;-69
2023/08/25 09:24:58;;;;;;;4.63;3.43;;;24.10;17.10;;;;;;5031339;28;20505;-69
2023/08/25 09:27:26;;;;;;;4.57;2.50;;;24.10;16.40;;;;;;5046948;28;20685;-69
2023/08/25 09:30:06;;;;;;;4.53;2.67;;;24.30;16.90;;;;;;5034367;28;20473;-69
2023/08/25 09:32:32;;;;;;;6.37;3.37;;;24.20;17.70;;;;;;5049205;28;20864;-69
2023/08/25 09:35:15;;;;;;;19.33;5.20;;;24.40;15.90;;;;;;5029651;28;20418;-69
2023/08/25 09:37:42;;;;;;;25.27;5.03;;;24.60;15.30;;;;;;5048266;28;20421;-70
2023/08/25 09:40:12;;;;;;;19.40;5.33;;;24.80;13.20;;;;;;5050449;28;20540;-71
2023/08/25 09:42:37;;;;;;;4.70;3.30;;;24.80;12.40;;;;;;5052805;28;20811;-72
2023/08/25 09:45:03;;;;;;;2.80;1.80;;;24.90;12.40;;;;;;5053229;28;20429;-72
2023/08/25 09:47:29;;;;;;;3.90;2.60;;;24.80;11.80;;;;;;5053498;28;20186;-73
2023/08/25 09:49:55;;;;;;;5.17;2.73;;;24.90;11.80;;;;;;5052126;28;20237;-72
2023/08/25 09:52:26;;;;;;;8.00;2.17;;;24.90;10.90;;;;;;5051399;28;21010;-73
2023/08/25 09:54:52;;;;;;;5.50;2.60;;;25.30;11.10;;;;;;5051762;28;20190;-73
2023/08/25 09:57:18;;;;;;;3.27;2.60;;;25.60;11.30;;;;;;5057245;28;20635;-73
2023/08/25 09:59:44;;;;;;;4.80;3.23;;;26.00;10.10;;;;;;5053004;28;20993;-72
2023/08/25 10:02:11;;;;;;;4.00;3.17;;;26.30;7.10;;;;;;5034823;28;20186;-73
2023/08/25 10:04:39;;;;;;;4.50;3.37;;;26.70;7.20;;;;;;5053110;28;20425;-72
2023/08/25 10:07:06;;;;;;;7.10;2.70;;;27.20;5.00;;;;;;5053059;28;20433;-73
2023/08/25 10:09:32;;;;;;;4.20;2.90;;;27.80;5.40;;;;;;5052806;28;20468;-73
2023/08/25 10:11:59;;;;;;;2.97;2.07;;;28.30;2.60;;;;;;5052506;28;20466;-73
2023/08/25 10:14:27;;;;;;;3.07;2.53;;;28.40;1.90;;;;;;5052159;28;20421;-73
2023/08/25 10:16:53;;;;;;;3.23;2.73;;;28.80;1.00;;;;;;5052390;28;20423;-73
2023/08/25 10:19:24;;;;;;;3.50;3.00;;;29.30;1.00;;;;;;5034777;28;20545;-74
2023/08/25 10:21:51;;;;;;;4.20;3.80;;;29.80;1.00;;;;;;5034527;28;20495;-74
2023/08/25 10:24:20;;;;;;;8.93;3.40;;;29.90;1.00;;;;;;5034309;28;20428;-73
2023/08/25 10:26:47;;;;;;;3.27;2.97;;;30.00;1.00;;;;;;5034888;28;20790;-77
2023/08/25 10:29:23;;;;;;;11.23;4.63;;;30.10;1.00;;;;;;5052184;28;20409;-71
2023/08/25 10:31:51;;;;;;;6.07;4.60;;;30.40;1.00;;;;;;5034509;28;20507;-70
2023/08/25 10:34:43;;;;;;;8.67;3.73;;;30.40;1.00;;;;;;5051968;28;20417;-71
2023/08/25 10:37:21;;;;;;;8.20;4.20;;;29.90;1.00;;;;;;5034574;28;20420;-70
2023/08/25 10:40:07;;;;;;;3.83;3.13;;;30.30;1.00;;;;;;5033854;28;20436;-70
2023/08/25 10:42:35;;;;;;;8.37;3.63;;;30.20;1.00;;;;;;5013811;28;20440;-70
2023/08/25 10:45:11;;;;;;;5.10;4.07;;;30.30;1.00;;;;;;5032199;28;20755;-70
2023/08/25 10:47:46;;;;;;;3.73;3.43;;;30.40;1.00;;;;;;5045160;28;20993;-70
2023/08/25 10:50:13;;;;;;;4.87;4.00;;;30.40;1.00;;;;;;5051878;28;20464;-70
2023/08/25 10:52:48;;;;;;;3.40;3.10;;;30.50;1.00;;;;;;5051752;28;20439;-70
2023/08/25 10:55:28;;;;;;;7.63;4.17;;;29.90;1.00;;;;;;5051735;28;20429;-70
2023/08/25 10:58:02;;;;;;;6.30;4.00;;;30.30;1.00;;;;;;5034324;28;20471;-70
2023/08/25 11:00:36;;;;;;;5.37;3.90;;;30.40;1.00;;;;;;5051737;28;20472;-70
2023/08/25 11:03:02;;;;;;;5.00;3.70;;;30.40;1.00;;;;;;5051802;28;20419;-70
2023/08/25 11:05:34;;;;;;;6.00;4.47;;;30.60;1.00;;;;;;5051564;28;20432;-70
2023/08/25 11:08:05;;;;;;;3.37;3.17;;;30.70;1.00;;;;;;5051818;28;20906;-70
2023/08/25 11:10:35;;;;;;;4.60;4.00;;;29.60;1.00;;;;;;5051306;28;20461;-70
2023/08/25 11:13:06;;;;;;;4.00;3.60;;;29.80;1.00;;;;;;5051614;28;20488;-69
2023/08/25 11:15:36;;;;;;;3.90;3.60;;;29.40;1.00;;;;;;5051451;28;20435;-70
2023/08/25 11:18:01;;;;;;;4.07;3.77;;;29.40;1.00;;;;;;5051751;28;20431;-69
2023/08/25 11:20:29;;;;;;;4.17;3.77;;;29.30;1.00;;;;;;5051191;28;20511;-69
2023/08/25 11:22:56;;;;;;;3.93;3.63;;;29.00;1.00;;;;;;5033543;28;20189;-69
2023/08/25 11:25:22;;;;;;;3.63;3.33;;;29.00;1.00;;;;;;5033502;28;20424;-69
2023/08/25 11:27:49;;;;;;;4.13;3.70;;;28.80;1.00;;;;;;5051648;28;20466;-68
2023/08/25 11:30:15;;;;;;;3.27;3.07;;;28.90;1.00;;;;;;5051194;28;20683;-71
2023/08/25 11:32:41;;;;;;;8.80;5.03;;;28.90;1.00;;;;;;5051134;28;20402;-69
2023/08/25 11:35:09;;;;;;;3.50;3.20;;;28.90;1.00;;;;;;5051742;28;20416;-70
2023/08/25 11:37:35;;;;;;;3.73;3.43;;;28.70;1.00;;;;;;5051604;28;20500;-69
2023/08/25 11:40:00;;;;;;;3.77;3.37;;;28.90;1.00;;;;;;5051694;28;20733;-69
2023/08/25 11:42:26;;;;;;;3.70;3.40;;;28.60;1.00;;;;;;5051234;28;20182;-70
2023/08/25 11:44:52;;;;;;;17.37;3.57;;;28.10;1.00;;;;;;5051757;28;20594;-70
2023/08/25 11:47:20;;;;;;;3.87;3.53;;;28.40;1.00;;;;;;5052570;28;20198;-68
2023/08/25 11:49:48;;;;;;;5.10;3.90;;;28.40;1.00;;;;;;5051585;28;20483;-70
2023/08/25 11:52:15;;;;;;;4.03;3.63;;;28.20;1.00;;;;;;5033855;28;20426;-70
2023/08/25 11:54:45;;;;;;;3.40;3.00;;;28.10;1.00;;;;;;5052289;28;20408;-70
2023/08/25 11:57:10;;;;;;;3.83;3.53;;;27.90;1.00;;;;;;5052122;28;20413;-70
2023/08/25 11:59:47;;;;;;;3.77;3.47;;;28.00;1.00;;;;;;5051381;28;20795;-71
2023/08/25 12:02:16;;;;;;;3.27;2.70;;;27.80;1.00;;;;;;5052765;28;20183;-71
2023/08/25 12:04:54;;;;;;;4.50;3.53;;;27.80;1.00;;;;;;5051694;28;20420;-71
2023/08/25 12:07:23;;;;;;;6.63;3.97;;;28.20;1.00;;;;;;5051795;28;20409;-71
2023/08/25 12:09:56;;;;;;;5.30;4.07;;;28.20;1.00;;;;;;5051883;28;20482;-70
2023/08/25 12:12:22;;;;;;;3.80;3.50;;;28.30;1.00;;;;;;5051490;28;20787;-71
2023/08/25 12:14:52;;;;;;;5.23;4.03;;;28.30;1.00;;;;;;5051601;28;20409;-72
2023/08/25 12:17:28;;;;;;;9.30;3.73;;;28.30;1.00;;;;;;5052470;28;20405;-71
2023/08/25 12:19:55;;;;;;;4.00;3.33;;;28.30;1.00;;;;;;5037677;28;20501;-71
2023/08/25 12:22:21;;;;;;;5.10;3.70;;;28.30;1.00;;;;;;5055516;28;20417;-70
2023/08/25 12:24:47;;;;;;;3.87;3.57;;;28.20;1.00;;;;;;5055407;28;20923;-71
2023/08/25 12:27:13;;;;;;;5.33;3.73;;;28.30;1.00;;;;;;5055402;28;20409;-69
2023/08/25 12:29:39;;;;;;;5.23;4.80;;;28.20;1.00;;;;;;5037365;28;20285;-72
2023/08/25 12:32:07;;;;;;;4.93;4.40;;;28.10;1.00;;;;;;5037462;28;20750;-71
2023/08/25 12:34:33;;;;;;;12.60;4.07;;;28.20;1.00;;;;;;5037207;28;20802;-71
2023/08/25 12:36:59;;;;;;;6.70;4.40;;;28.10;1.00;;;;;;5037378;28;20795;-72
2023/08/25 12:39:24;;;;;;;5.03;3.80;;;27.90;1.00;;;;;;5036736;28;20447;-72
2023/08/25 12:41:50;;;;;;;5.07;4.23;;;27.70;1.00;;;;;;5036497;28;20185;-71
2023/08/25 12:44:15;;;;;;;5.00;3.57;;;27.50;1.00;;;;;;5036709;28;20174;-72
2023/08/25 12:46:42;;;;;;;7.13;4.13;;;27.60;1.00;;;;;;5054409;28;20643;-72
2023/08/25 12:49:08;;;;;;;7.90;4.80;;;27.60;1.00;;;;;;5054301;28;20178;-70
2023/08/25 12:51:34;;;;;;;4.50;4.10;;;27.60;1.00;;;;;;5054458;28;20471;-70